createdAt,value
2022-12-31T00:01:26.992Z,5.78
2022-12-31T00:03:54.208Z,6.13
2022-12-31T00:06:26.477Z,4.13
2022-12-31T00:08:54.626Z,11.82
2022-12-31T00:11:22.143Z,5.13
2022-12-31T00:13:49.640Z,3.95
2022-12-31T00:16:18.148Z,3.38
2022-12-31T00:18:46.179Z,4.38
2022-12-31T00:21:13.408Z,5.00
2022-12-31T00:23:40.555Z,5.82
2022-12-31T00:26:09.590Z,6.38
2022-12-31T00:28:37.421Z,15.90
2022-12-31T00:31:05.731Z,5.97
2022-12-31T00:33:32.913Z,5.82
2022-12-31T00:36:07.517Z,5.63
2022-12-31T00:38:35.566Z,4.95
2022-12-31T00:41:02.715Z,4.35
2022-12-31T00:43:29.800Z,7.65
2022-12-31T00:45:56.929Z,5.30
2022-12-31T00:48:24.171Z,7.32
2022-12-31T00:50:51.791Z,5.95
2022-12-31T00:53:19.002Z,5.00
2022-12-31T00:55:46.067Z,4.90
2022-12-31T00:58:13.187Z,6.20
2022-12-31T01:00:40.442Z,4.43
2022-12-31T01:03:07.735Z,4.38
2022-12-31T01:05:35.680Z,4.97
2022-12-31T01:08:02.963Z,3.72
2022-12-31T01:10:48.856Z,5.25
2022-12-31T01:13:16.022Z,5.43
2022-12-31T01:15:43.225Z,3.22
2022-12-31T01:18:10.378Z,6.03
2022-12-31T01:20:41.880Z,4.28
2022-12-31T01:23:09.623Z,5.40
2022-12-31T01:25:41.802Z,4.20
2022-12-31T01:28:09.608Z,8.02
2022-12-31T01:30:39.042Z,7.18
2022-12-31T01:33:06.211Z,7.00
2022-12-31T01:35:34.805Z,5.75
2022-12-31T01:38:01.969Z,5.20
2022-12-31T01:40:29.134Z,5.35
2022-12-31T01:42:56.988Z,4.18
2022-12-31T01:45:24.442Z,3.30
2022-12-31T01:47:54.103Z,3.28
2022-12-31T01:50:23.851Z,4.30
2022-12-31T01:52:52.550Z,2.83
2022-12-31T01:55:22.413Z,8.13
2022-12-31T01:57:52.015Z,4.25
2022-12-31T02:00:19.174Z,4.30
2022-12-31T02:02:46.763Z,3.05
2022-12-31T02:05:19.754Z,6.25
2022-12-31T02:07:48.151Z,3.70
2022-12-31T02:10:15.317Z,4.00
2022-12-31T02:12:42.502Z,6.40
2022-12-31T02:15:09.969Z,5.13
2022-12-31T02:17:52.516Z,5.03
2022-12-31T02:20:37.578Z,5.15
2022-12-31T02:23:16.222Z,8.35
2022-12-31T02:26:11.504Z,5.25
2022-12-31T02:28:57.404Z,4.32
2022-12-31T02:31:45.072Z,5.38
2022-12-31T02:34:12.196Z,7.65
2022-12-31T02:36:41.238Z,6.22
2022-12-31T02:39:09.838Z,4.93
2022-12-31T02:41:52.237Z,5.95
2022-12-31T02:44:26.263Z,4.40
2022-12-31T02:47:08.656Z,6.07
2022-12-31T02:49:56.989Z,5.10
2022-12-31T02:52:41.462Z,5.70
2022-12-31T02:55:08.546Z,4.70
2022-12-31T02:57:41.189Z,6.90
2022-12-31T03:00:29.054Z,5.78
2022-12-31T03:02:56.568Z,3.85
2022-12-31T03:05:25.066Z,3.75
2022-12-31T03:07:52.190Z,3.35
2022-12-31T03:10:19.601Z,3.97
2022-12-31T03:12:47.351Z,3.10
2022-12-31T03:15:25.842Z,6.30
2022-12-31T03:18:04.364Z,4.10
2022-12-31T03:20:55.202Z,6.70
2022-12-31T03:23:27.130Z,4.30
2022-12-31T03:25:54.953Z,6.40
2022-12-31T03:28:23.288Z,3.55
2022-12-31T03:30:52.575Z,6.63
2022-12-31T03:33:19.684Z,4.55
2022-12-31T03:35:48.035Z,2.65
2022-12-31T03:38:15.738Z,7.53
2022-12-31T03:40:45.106Z,4.60
2022-12-31T03:43:12.355Z,4.88
2022-12-31T03:45:39.655Z,2.72
2022-12-31T03:48:07.879Z,5.15
2022-12-31T03:50:35.645Z,4.03
2022-12-31T03:53:02.845Z,1.55
2022-12-31T03:55:30.089Z,3.38
2022-12-31T03:57:57.313Z,3.80
2022-12-31T04:00:24.445Z,2.17
2022-12-31T04:02:51.950Z,6.05
2022-12-31T04:05:20.032Z,4.55
2022-12-31T04:07:47.258Z,3.45
2022-12-31T04:10:15.809Z,4.00
2022-12-31T04:12:43.384Z,3.13
2022-12-31T04:15:11.172Z,4.25
2022-12-31T04:17:38.315Z,3.42
2022-12-31T04:20:05.585Z,2.83
2022-12-31T04:22:32.649Z,2.70
2022-12-31T04:24:59.743Z,2.13
2022-12-31T04:27:26.923Z,3.42
2022-12-31T04:29:54.072Z,2.75
2022-12-31T04:32:21.171Z,3.40
2022-12-31T04:34:48.264Z,3.00
2022-12-31T04:37:15.360Z,1.00
2022-12-31T04:39:42.559Z,2.30
2022-12-31T04:42:09.628Z,3.75
2022-12-31T04:44:37.814Z,3.17
2022-12-31T04:47:05.028Z,2.83
2022-12-31T04:49:32.162Z,3.05
2022-12-31T04:51:59.258Z,2.35
2022-12-31T04:54:26.581Z,3.38
2022-12-31T04:56:53.719Z,2.92
2022-12-31T04:59:20.916Z,3.33
2022-12-31T05:01:48.090Z,6.10
2022-12-31T05:04:15.294Z,4.75
2022-12-31T05:06:42.430Z,5.47
2022-12-31T05:09:09.538Z,5.03
2022-12-31T05:11:37.819Z,6.57
2022-12-31T05:14:04.962Z,13.00
2022-12-31T05:16:32.173Z,5.22
2022-12-31T05:18:59.334Z,3.58
2022-12-31T05:21:26.490Z,5.43
2022-12-31T05:23:53.573Z,4.38
2022-12-31T05:26:20.691Z,3.20
2022-12-31T05:28:47.878Z,3.97
2022-12-31T05:31:15.012Z,3.63
2022-12-31T05:33:42.180Z,6.13
2022-12-31T05:36:09.333Z,2.88
2022-12-31T05:38:37.495Z,5.13
2022-12-31T05:41:05.568Z,3.80
2022-12-31T05:43:32.717Z,2.35
2022-12-31T05:46:03.722Z,4.25
2022-12-31T05:48:31.342Z,4.53
2022-12-31T05:50:58.580Z,3.53
2022-12-31T05:53:25.728Z,3.47
2022-12-31T05:55:52.884Z,3.65
2022-12-31T05:58:19.973Z,8.45
2022-12-31T06:00:47.146Z,3.38
2022-12-31T06:03:14.484Z,4.22
2022-12-31T06:05:42.672Z,3.85
2022-12-31T06:08:10.646Z,2.88
2022-12-31T06:10:39.135Z,4.75
2022-12-31T06:13:06.423Z,2.00
2022-12-31T06:15:40.457Z,2.78
2022-12-31T06:18:07.977Z,3.88
2022-12-31T06:20:37.728Z,2.58
2022-12-31T06:23:05.441Z,2.10
2022-12-31T06:25:32.930Z,4.00
2022-12-31T06:28:00.050Z,2.22
2022-12-31T06:30:27.247Z,3.22
2022-12-31T06:32:55.269Z,3.78
2022-12-31T06:35:22.392Z,5.55
2022-12-31T06:37:50.111Z,4.88
2022-12-31T06:40:17.260Z,5.45
2022-12-31T06:42:44.464Z,8.40
2022-12-31T06:45:11.673Z,5.75
2022-12-31T06:47:38.757Z,5.70
2022-12-31T06:50:06.906Z,5.40
2022-12-31T06:52:34.226Z,6.78
2022-12-31T06:55:01.578Z,7.00
2022-12-31T06:57:29.147Z,6.03
2022-12-31T06:59:56.378Z,4.90
2022-12-31T07:02:27.420Z,4.95
2022-12-31T07:04:54.581Z,5.18
2022-12-31T07:07:30.507Z,7.22
2022-12-31T07:10:17.966Z,6.97
2022-12-31T07:12:51.123Z,5.40
2022-12-31T07:15:41.426Z,5.80
2022-12-31T07:18:21.731Z,4.72
2022-12-31T07:20:48.972Z,4.07
2022-12-31T07:23:16.312Z,3.80
2022-12-31T07:25:48.338Z,3.05
2022-12-31T07:28:33.612Z,4.38
2022-12-31T07:31:17.622Z,1.33
2022-12-31T07:33:52.378Z,1.30
2022-12-31T07:36:19.443Z,2.47
2022-12-31T07:38:52.263Z,0.50
2022-12-31T07:41:43.680Z,0.30
2022-12-31T07:44:13.859Z,0.20
2022-12-31T07:46:52.703Z,0.52
2022-12-31T07:49:19.966Z,0.47
2022-12-31T07:51:47.669Z,1.17
2022-12-31T07:54:14.885Z,0.40
2022-12-31T07:56:42.726Z,1.80
2022-12-31T07:59:28.287Z,0.65
2022-12-31T08:02:01.247Z,1.00
2022-12-31T08:04:32.200Z,1.17
2022-12-31T08:07:04.046Z,1.27
2022-12-31T08:09:52.388Z,1.77
2022-12-31T08:12:20.026Z,3.15
2022-12-31T08:14:47.814Z,0.80
2022-12-31T08:17:16.041Z,1.70
2022-12-31T08:19:43.630Z,1.42
2022-12-31T08:22:38.771Z,2.53
2022-12-31T08:25:05.850Z,1.20
2022-12-31T08:27:38.084Z,1.38
2022-12-31T08:30:05.147Z,2.13
2022-12-31T08:32:56.136Z,1.20
2022-12-31T08:35:26.231Z,2.38
2022-12-31T08:38:07.684Z,1.15
2022-12-31T08:40:53.455Z,1.40
2022-12-31T08:43:48.124Z,2.55
2022-12-31T08:46:34.095Z,2.40
2022-12-31T08:49:01.343Z,1.95
2022-12-31T08:51:28.730Z,1.17
2022-12-31T08:53:55.919Z,1.35
2022-12-31T08:56:43.728Z,1.08
2022-12-31T08:59:51.464Z,3.90
2022-12-31T09:02:26.393Z,5.70
2022-12-31T09:05:00.137Z,3.42
2022-12-31T09:07:31.888Z,5.18
2022-12-31T09:09:59.036Z,2.50
2022-12-31T09:12:26.071Z,2.78
2022-12-31T09:15:05.182Z,3.40
2022-12-31T09:17:44.733Z,1.55
2022-12-31T09:20:16.263Z,1.92
2022-12-31T09:22:43.501Z,3.08
2022-12-31T09:25:17.483Z,1.83
2022-12-31T09:27:54.535Z,2.85
2022-12-31T09:30:21.991Z,4.75
2022-12-31T09:33:31.261Z,3.17
2022-12-31T09:36:01.455Z,2.33
2022-12-31T09:38:31.495Z,3.17
2022-12-31T09:41:26.275Z,6.65
2022-12-31T09:44:02.496Z,3.50
2022-12-31T09:46:32.611Z,3.17
2022-12-31T09:49:02.688Z,5.63
2022-12-31T09:51:31.661Z,5.90
2022-12-31T09:54:20.190Z,2.60
2022-12-31T09:57:25.505Z,4.60
2022-12-31T10:00:05.081Z,5.15
2022-12-31T10:02:59.578Z,3.45
2022-12-31T10:05:56.874Z,4.13
2022-12-31T10:08:23.991Z,3.80
2022-12-31T10:10:56.493Z,5.65
2022-12-31T10:13:38.798Z,5.13
2022-12-31T10:16:10.608Z,5.78
2022-12-31T10:19:15.009Z,5.13
2022-12-31T10:21:42.124Z,5.20
2022-12-31T10:24:34.873Z,4.15
2022-12-31T10:27:12.782Z,7.05
2022-12-31T10:29:47.126Z,3.88
2022-12-31T10:32:14.203Z,6.82
2022-12-31T10:35:02.213Z,3.42
2022-12-31T10:37:41.236Z,3.50
2022-12-31T10:40:17.640Z,1.88
2022-12-31T10:43:24.918Z,3.00
2022-12-31T10:46:03.970Z,2.22
2022-12-31T10:48:35.221Z,4.90
2022-12-31T10:51:09.751Z,4.50
2022-12-31T10:56:44.277Z,2.67
2022-12-31T10:59:29.552Z,4.35
2022-12-31T11:02:02.604Z,5.18
2022-12-31T11:04:51.321Z,3.13
2022-12-31T11:07:55.661Z,5.47
2022-12-31T11:10:39.512Z,5.55
2022-12-31T11:13:25.215Z,5.75
2022-12-31T11:16:01.533Z,5.53
2022-12-31T11:18:31.831Z,4.63
2022-12-31T11:21:27.990Z,5.93
2022-12-31T11:24:05.080Z,4.57
2022-12-31T11:26:47.266Z,34.30
2022-12-31T11:29:17.134Z,24.13
2022-12-31T11:32:03.548Z,8.35
2022-12-31T11:34:30.897Z,6.50
2022-12-31T11:37:04.278Z,7.80
2022-12-31T11:39:43.622Z,5.25
2022-12-31T11:44:49.170Z,12.38
2022-12-31T11:47:25.243Z,5.60
2022-12-31T11:50:00.846Z,5.35
2022-12-31T11:52:39.556Z,7.75
2022-12-31T11:55:37.288Z,5.93
2022-12-31T11:58:12.243Z,6.22
2022-12-31T12:00:40.661Z,8.27
2022-12-31T12:03:08.093Z,11.25
2022-12-31T12:05:35.621Z,7.88
2022-12-31T12:08:03.139Z,6.28
2022-12-31T12:10:36.111Z,8.02
2022-12-31T12:13:12.470Z,23.50
2022-12-31T12:15:40.480Z,9.48
2022-12-31T12:18:09.302Z,9.00
2022-12-31T12:20:37.867Z,5.93
2022-12-31T12:23:15.745Z,9.27
2022-12-31T12:25:44.347Z,8.18
2022-12-31T12:28:18.285Z,14.93
2022-12-31T12:30:46.680Z,9.95
2022-12-31T12:33:18.466Z,6.68
2022-12-31T12:35:45.681Z,5.65
2022-12-31T12:38:23.504Z,7.00
2022-12-31T12:40:55.249Z,4.40
2022-12-31T12:43:23.835Z,3.78
2022-12-31T12:45:52.406Z,4.90
2022-12-31T12:48:22.384Z,5.22
2022-12-31T12:50:49.824Z,5.90
2022-12-31T12:53:23.151Z,5.93
2022-12-31T12:55:50.209Z,7.70
2022-12-31T12:58:23.669Z,7.47
2022-12-31T13:01:14.398Z,5.80
2022-12-31T13:07:20.146Z,10.15
2022-12-31T13:09:50.336Z,14.48
2022-12-31T13:12:20.560Z,21.67
2022-12-31T13:15:03.167Z,12.00
2022-12-31T13:17:39.439Z,7.47
2022-12-31T13:20:15.817Z,7.55
2022-12-31T13:22:45.331Z,7.10
2022-12-31T13:25:12.387Z,8.50
2022-12-31T13:27:45.191Z,6.15
2022-12-31T13:30:17.179Z,5.38
2022-12-31T13:32:46.746Z,5.68
2022-12-31T13:35:23.458Z,8.48
2022-12-31T13:37:52.138Z,7.30
2022-12-31T13:40:32.458Z,7.70
2022-12-31T13:43:06.682Z,6.32
2022-12-31T13:45:36.867Z,7.88
2022-12-31T13:48:08.741Z,5.72
2022-12-31T13:50:49.592Z,6.57
2022-12-31T13:53:19.988Z,9.35
2022-12-31T13:55:56.726Z,5.85
2022-12-31T13:58:31.621Z,7.53
2022-12-31T14:00:58.887Z,5.90
2022-12-31T14:04:01.584Z,6.25
2022-12-31T14:06:28.682Z,7.63
2022-12-31T14:08:55.938Z,5.13
2022-12-31T14:11:26.120Z,7.18
2022-12-31T14:13:56.122Z,6.20
2022-12-31T14:16:42.337Z,6.60
2022-12-31T14:19:33.196Z,8.82
2022-12-31T14:22:02.385Z,7.07
2022-12-31T14:24:29.491Z,5.07
2022-12-31T14:26:58.904Z,8.00
2022-12-31T14:29:48.376Z,7.63
2022-12-31T14:32:25.820Z,6.28
2022-12-31T14:35:02.207Z,10.25
2022-12-31T14:37:38.587Z,9.43
2022-12-31T14:40:59.491Z,7.70
2022-12-31T14:43:41.017Z,8.75
2022-12-31T14:46:10.315Z,6.53
2022-12-31T14:48:37.543Z,7.63
2022-12-31T14:51:05.207Z,4.63
2022-12-31T14:53:32.503Z,8.40
2022-12-31T14:55:59.696Z,7.90
2022-12-31T14:58:37.569Z,7.30
2022-12-31T15:01:08.647Z,7.38
2022-12-31T15:03:43.188Z,7.47
2022-12-31T15:06:18.308Z,6.55
2022-12-31T15:09:02.471Z,5.00
2022-12-31T15:11:38.464Z,6.78
2022-12-31T15:14:25.811Z,9.15
2022-12-31T15:16:58.776Z,7.38
2022-12-31T15:22:31.478Z,8.18
2022-12-31T15:25:00.818Z,9.55
2022-12-31T15:27:33.874Z,9.90
2022-12-31T15:30:01.462Z,12.52
2022-12-31T15:32:42.122Z,11.30
2022-12-31T15:35:21.133Z,10.05
2022-12-31T15:38:12.782Z,11.48
2022-12-31T15:40:47.067Z,15.00
2022-12-31T15:43:26.127Z,14.88
2022-12-31T15:45:54.269Z,22.95
2022-12-31T15:48:27.370Z,14.35
2022-12-31T15:50:57.185Z,13.55
2022-12-31T15:53:29.757Z,7.68
2022-12-31T15:55:58.722Z,10.65
2022-12-31T15:58:31.611Z,12.88
2022-12-31T16:01:12.859Z,11.85
2022-12-31T16:03:43.271Z,14.15
2022-12-31T16:06:14.524Z,15.13
2022-12-31T16:08:44.377Z,14.00
2022-12-31T16:11:11.460Z,9.65
2022-12-31T16:13:42.572Z,12.13
2022-12-31T16:16:20.130Z,13.13
2022-12-31T16:18:50.049Z,13.85
2022-12-31T16:21:24.396Z,13.80
2022-12-31T16:23:55.839Z,10.98
2022-12-31T16:26:29.032Z,13.65
2022-12-31T16:29:00.105Z,14.02
2022-12-31T16:31:29.186Z,8.15
2022-12-31T16:34:06.740Z,10.88
2022-12-31T16:36:33.922Z,15.65
2022-12-31T16:39:21.961Z,10.60
2022-12-31T16:41:49.101Z,12.57
2022-12-31T16:44:26.771Z,9.50
2022-12-31T16:46:57.093Z,9.82
2022-12-31T16:49:24.727Z,13.23
2022-12-31T16:51:51.935Z,15.98
2022-12-31T16:54:28.550Z,13.00
2022-12-31T16:56:56.861Z,14.32
2022-12-31T16:59:34.910Z,13.18
2022-12-31T17:02:03.993Z,14.13
2022-12-31T17:04:31.380Z,13.20
2022-12-31T17:07:32.304Z,10.90
2022-12-31T17:10:08.690Z,11.38
2022-12-31T17:13:00.630Z,9.10
2022-12-31T17:15:28.178Z,14.30
2022-12-31T17:17:57.392Z,10.85
2022-12-31T17:20:29.181Z,15.93
2022-12-31T17:23:06.535Z,10.75
2022-12-31T17:25:34.689Z,14.07
2022-12-31T17:28:06.894Z,13.40
2022-12-31T17:30:34.866Z,11.18
2022-12-31T17:33:04.696Z,14.02
2022-12-31T17:35:42.472Z,13.82
2022-12-31T17:38:18.622Z,12.00
2022-12-31T17:40:51.593Z,11.50
2022-12-31T17:43:22.977Z,9.68
2022-12-31T17:45:53.821Z,12.27
2022-12-31T17:48:24.351Z,11.60
2022-12-31T17:50:55.765Z,12.40
2022-12-31T17:53:23.014Z,11.68
2022-12-31T17:55:52.514Z,12.18
2022-12-31T17:58:58.013Z,14.70
2022-12-31T18:01:25.272Z,12.13
2022-12-31T18:03:52.509Z,10.10
2022-12-31T18:06:19.952Z,12.63
2022-12-31T18:08:47.177Z,16.60
2022-12-31T18:11:18.718Z,10.35
2022-12-31T18:13:46.003Z,10.15
2022-12-31T18:16:13.473Z,10.40
2022-12-31T18:18:41.835Z,14.60
2022-12-31T18:21:27.885Z,12.02
2022-12-31T18:26:23.186Z,11.10
2022-12-31T18:28:50.509Z,10.18
2022-12-31T18:31:22.224Z,12.73
2022-12-31T18:33:50.069Z,12.55
2022-12-31T18:36:18.506Z,13.65
2022-12-31T18:38:46.159Z,12.98
2022-12-31T18:41:18.153Z,15.48
2022-12-31T18:43:45.350Z,19.58
2022-12-31T18:46:14.246Z,15.23
2022-12-31T18:48:41.964Z,12.82
2022-12-31T18:51:19.464Z,14.60
2022-12-31T18:53:46.727Z,18.45
2022-12-31T18:56:16.127Z,12.13
2022-12-31T18:58:43.611Z,16.60
2022-12-31T19:01:38.078Z,13.25
2022-12-31T19:04:13.647Z,11.93
2022-12-31T19:06:40.832Z,9.88
2022-12-31T19:09:23.895Z,12.43
2022-12-31T19:11:55.084Z,13.43
2022-12-31T19:14:26.643Z,9.13
2022-12-31T19:16:54.494Z,9.68
2022-12-31T19:19:21.991Z,9.95
2022-12-31T19:21:49.100Z,10.05
2022-12-31T19:24:18.592Z,8.27
2022-12-31T19:26:45.729Z,9.07
2022-12-31T19:29:23.480Z,9.43
2022-12-31T19:31:51.006Z,9.32
2022-12-31T19:34:18.170Z,14.82
2022-12-31T19:36:45.521Z,12.45
2022-12-31T19:39:17.053Z,12.88
2022-12-31T19:41:44.256Z,10.75
2022-12-31T19:44:16.065Z,11.13
2022-12-31T19:46:43.130Z,17.15
2022-12-31T19:49:14.184Z,9.63
2022-12-31T19:51:41.895Z,17.02
2022-12-31T19:54:09.180Z,15.18
2022-12-31T19:56:36.458Z,14.52
2022-12-31T19:59:04.955Z,10.02
2022-12-31T20:01:32.148Z,12.27
2022-12-31T20:03:59.402Z,11.70
2022-12-31T20:06:26.758Z,13.07
2022-12-31T20:08:53.942Z,11.00
2022-12-31T20:11:22.075Z,13.80
2022-12-31T20:13:49.924Z,12.85
2022-12-31T20:16:18.557Z,12.45
2022-12-31T20:18:46.614Z,15.27
2022-12-31T20:21:15.002Z,10.50
2022-12-31T20:23:42.193Z,12.05
2022-12-31T20:26:09.306Z,12.00
2022-12-31T20:28:36.859Z,15.93
2022-12-31T20:31:08.377Z,24.77
2022-12-31T20:33:35.577Z,12.95
2022-12-31T20:36:03.386Z,15.85
2022-12-31T20:38:30.700Z,12.63
2022-12-31T20:41:11.558Z,10.65
2022-12-31T20:43:39.118Z,13.00
2022-12-31T20:46:14.105Z,12.88
2022-12-31T20:48:42.367Z,12.13
2022-12-31T20:51:09.463Z,15.15
2022-12-31T20:53:36.592Z,15.30
2022-12-31T20:56:07.257Z,11.13
2022-12-31T20:58:34.503Z,12.57
2022-12-31T21:01:02.123Z,10.65
2022-12-31T21:06:16.850Z,11.20
2022-12-31T21:08:44.481Z,14.23
2022-12-31T21:11:30.551Z,15.80
2022-12-31T21:13:58.508Z,12.40
2022-12-31T21:16:25.927Z,10.63
2022-12-31T21:18:54.130Z,9.00
2022-12-31T21:21:21.386Z,19.13
2022-12-31T21:23:48.515Z,12.50
2022-12-31T21:26:15.979Z,14.75
2022-12-31T21:28:43.446Z,19.48
2022-12-31T21:31:12.385Z,16.02
2022-12-31T21:33:39.559Z,16.20
2022-12-31T21:36:06.755Z,12.55
2022-12-31T21:38:36.379Z,13.93
2022-12-31T21:41:04.429Z,12.07
2022-12-31T21:43:31.639Z,12.13
2022-12-31T21:46:02.804Z,15.13
2022-12-31T21:48:29.926Z,14.73
2022-12-31T21:51:05.587Z,13.07
2022-12-31T21:53:36.935Z,13.88
2022-12-31T21:56:11.847Z,9.93
2022-12-31T21:59:12.538Z,15.45
2022-12-31T22:01:58.615Z,13.20
2022-12-31T22:05:00.896Z,11.10
2022-12-31T22:07:13.201Z,14.15
2022-12-31T22:09:40.405Z,15.48
2022-12-31T22:12:07.579Z,14.68
2022-12-31T22:14:34.650Z,15.68
2022-12-31T22:17:01.767Z,14.82
2022-12-31T22:19:28.834Z,14.13
2022-12-31T22:21:55.934Z,10.35
2022-12-31T22:24:23.011Z,11.40
2022-12-31T22:26:50.999Z,14.65
2022-12-31T22:29:19.623Z,14.38
2022-12-31T22:31:46.759Z,11.40
2022-12-31T22:34:13.920Z,10.55
2022-12-31T22:36:41.118Z,19.17
2022-12-31T22:39:08.179Z,15.80
2022-12-31T22:41:35.305Z,14.45
2022-12-31T22:44:04.753Z,12.70
2022-12-31T22:46:32.560Z,10.82
2022-12-31T22:49:00.349Z,13.93
2022-12-31T22:51:54.711Z,12.45
2022-12-31T22:54:15.272Z,12.00
2022-12-31T22:56:42.395Z,10.80
2022-12-31T22:59:09.775Z,10.32
2022-12-31T23:01:37.085Z,12.93
2022-12-31T23:04:04.681Z,13.40
2022-12-31T23:06:31.967Z,33.47
2022-12-31T23:09:17.664Z,66.70
2022-12-31T23:11:44.794Z,43.90
2022-12-31T23:14:34.332Z,54.13
2022-12-31T23:17:29.405Z,40.65
2022-12-31T23:20:17.516Z,32.90
2022-12-31T23:23:03.635Z,26.10
2022-12-31T23:25:34.365Z,28.98
2022-12-31T23:28:01.598Z,23.70
2022-12-31T23:30:28.835Z,22.85
2022-12-31T23:32:56.003Z,23.17
2022-12-31T23:35:23.384Z,18.33
2022-12-31T23:37:50.727Z,23.02
2022-12-31T23:40:21.649Z,25.45
2022-12-31T23:42:49.848Z,23.27
2022-12-31T23:45:17.168Z,20.23
2022-12-31T23:47:44.397Z,23.17
2022-12-31T23:50:11.558Z,18.38
2022-12-31T23:52:38.683Z,24.95
2022-12-31T23:55:05.883Z,15.60
2022-12-31T23:57:32.984Z,23.55
